Lakeside Village, Texas
Current Conditions -  °F | °C
As of 9:35 AM on Saturday 25 Oct 2014 (Local Time) from KCPT Reporting Station
Clear Clear  
Wind Chill: 68°   Ceiling: Unl
Heat Index: 68°   Visibility: 10mi
Dew Point: 63°   Wind: 8mph
Humidity: 83%   Direction: 170°S
Pressure: 30.18"   Gusts: NA
Location:  32.0481°N, 97.6449°W
Report Text: KCPT 251435Z AUTO 17007KT 10SM CLR 20/17 A3018 RMK AO2
Loading
Personal Weather Stations






























Interactive Weather Map
Tropical Storm Tracking
New forecast layout! Learn more

10-Day Weather Forecast

Advertisements
Track Severe Weather on mobile